Kamishli, Syria
Current Conditions -  °F | °C
As of 8:50 AM on Wednesday 22 Oct 2014 (Local Time) from LTCR Reporting Station
Few Clouds Few Clouds  
Wind Chill: 61°   Ceiling: Unl
Heat Index: 61°   Visibility: 6mi
Dew Point: 52°   Wind: 3mph
Humidity: 72%   Direction: 100°E
Pressure: 30.18"   Gusts: NA
Location:  37.05°N, 41.22°E
Report Text: LTCR 220550Z 10003KT 060V140 9999 FEW035 16/11 Q1022
Loading
Personal Weather Stations






























Interactive Weather Map
Tropical Storm Tracking
New forecast layout! Learn more

10-Day Weather Forecast

Advertisements
Track Severe Weather on mobile